New Gloucester, Maine
Current Conditions -  °F | °C
As of 3:35 AM on Monday 26 Jan 2015 (Local Time) from KLEW Reporting Station
Clear Clear  
Wind Chill: -10°   Ceiling: Unl
Heat Index:   Visibility: 10mi
Dew Point: -6°   Wind: 8mph
Humidity: 66%   Direction: 10°N
Pressure: 30.06"   Gusts: NA
Location:  43.96°N, 70.26°W
Report Text: KLEW 260835Z AUTO 01007KT 10SM CLR M16/M21 A3006 RMK AO1
Loading
Personal Weather Stations






























Interactive Weather Map New forecast layout! Learn more

10-Day Weather Forecast

Advertisements
Track Severe Weather on mobile